sensor_id;sensor_type;location;lat;lon;timestamp;pressure;altitude;pressure_sealevel;temperature;humidity
71476;BME280;59286;59.274;17.974;2022-10-16T00:00:17;100198.56;;;12.54;94.35
71476;BME280;59286;59.274;17.974;2022-10-16T00:02:43;100203.97;;;12.57;93.89
71476;BME280;59286;59.274;17.974;2022-10-16T00:05:08;100184.25;;;12.43;94.08
71476;BME280;59286;59.274;17.974;2022-10-16T00:07:34;100158.22;;;12.21;94.16
71476;BME280;59286;59.274;17.974;2022-10-16T00:09:59;100218.84;;;12.53;94.67
71476;BME280;59286;59.274;17.974;2022-10-16T00:12:24;100219.16;;;12.52;94.40
71476;BME280;59286;59.274;17.974;2022-10-16T00:14:50;100201.88;;;12.42;94.62
71476;BME280;59286;59.274;17.974;2022-10-16T00:17:15;100194.94;;;12.38;94.33
71476;BME280;59286;59.274;17.974;2022-10-16T00:19:41;100201.72;;;12.39;94.35
71476;BME280;59286;59.274;17.974;2022-10-16T00:22:06;100176.44;;;12.26;94.30
71476;BME280;59286;59.274;17.974;2022-10-16T00:24:31;100177.66;;;12.28;94.22
71476;BME280;59286;59.274;17.974;2022-10-16T00:26:57;100173.63;;;12.31;94.49
71476;BME280;59286;59.274;17.974;2022-10-16T00:29:25;100196.59;;;12.42;94.14
71476;BME280;59286;59.274;17.974;2022-10-16T00:31:50;100215.88;;;12.55;94.19
71476;BME280;59286;59.274;17.974;2022-10-16T00:34:16;100182.88;;;12.37;93.99
71476;BME280;59286;59.274;17.974;2022-10-16T00:36:41;100177.16;;;12.35;93.87
71476;BME280;59286;59.274;17.974;2022-10-16T00:39:06;100148.47;;;12.21;94.06
71476;BME280;59286;59.274;17.974;2022-10-16T00:41:33;100174.06;;;12.41;93.61
71476;BME280;59286;59.274;17.974;2022-10-16T00:44:04;100172.34;;;12.37;93.58
71476;BME280;59286;59.274;17.974;2022-10-16T00:46:49;100179.91;;;12.38;93.96
71476;BME280;59286;59.274;17.974;2022-10-16T00:49:16;100160.06;;;12.20;93.71
71476;BME280;59286;59.274;17.974;2022-10-16T00:51:46;100167.16;;;12.20;93.54
71476;BME280;59286;59.274;17.974;2022-10-16T00:54:18;100153.28;;;12.11;93.43
71476;BME280;59286;59.274;17.974;2022-10-16T00:56:46;100180.75;;;12.22;93.67
71476;BME280;59286;59.274;17.974;2022-10-16T00:59:24;100205.34;;;12.26;94.26
71476;BME280;59286;59.274;17.974;2022-10-16T01:01:50;100156.44;;;11.96;94.57
71476;BME280;59286;59.274;17.974;2022-10-16T01:04:16;100137.72;;;11.97;94.05
71476;BME280;59286;59.274;17.974;2022-10-16T01:09:34;100127.72;;;11.91;93.86
71476;BME280;59286;59.274;17.974;2022-10-16T01:15:27;100156.38;;;12.13;94.05
71476;BME280;59286;59.274;17.974;2022-10-16T01:20:12;100183.38;;;12.22;93.91
71476;BME280;59286;59.274;17.974;2022-10-16T01:23:01;100192.06;;;12.22;94.16
71476;BME280;59286;59.274;17.974;2022-10-16T01:28:05;100195.28;;;12.28;94.52
71476;BME280;59286;59.274;17.974;2022-10-16T01:30:34;100195.91;;;12.25;94.60
71476;BME280;59286;59.274;17.974;2022-10-16T01:33:10;100185.75;;;12.15;94.42
71476;BME280;59286;59.274;17.974;2022-10-16T01:35:45;100188.19;;;12.20;94.29
71476;BME280;59286;59.274;17.974;2022-10-16T01:38:19;100186.78;;;12.22;94.01
71476;BME280;59286;59.274;17.974;2022-10-16T01:40:51;100202.22;;;12.32;93.74
71476;BME280;59286;59.274;17.974;2022-10-16T01:43:22;100183.72;;;12.20;93.60
71476;BME280;59286;59.274;17.974;2022-10-16T01:45:49;100197.50;;;12.17;93.91
71476;BME280;59286;59.274;17.974;2022-10-16T01:48:18;100208.88;;;12.30;93.96
71476;BME280;59286;59.274;17.974;2022-10-16T01:50:48;100211.03;;;12.28;93.71
71476;BME280;59286;59.274;17.974;2022-10-16T01:53:16;100192.84;;;12.14;94.04
71476;BME280;59286;59.274;17.974;2022-10-16T01:55:44;100212.56;;;12.29;93.79
71476;BME280;59286;59.274;17.974;2022-10-16T01:58:12;100219.84;;;12.32;93.64
71476;BME280;59286;59.274;17.974;2022-10-16T02:00:39;100196.66;;;12.25;93.72
71476;BME280;59286;59.274;17.974;2022-10-16T02:03:07;100175.22;;;12.15;93.60
71476;BME280;59286;59.274;17.974;2022-10-16T02:08:14;100162.81;;;12.24;93.43
71476;BME280;59286;59.274;17.974;2022-10-16T02:10:40;100125.03;;;11.99;93.41
71476;BME280;59286;59.274;17.974;2022-10-16T02:13:09;100169.50;;;12.21;93.32
71476;BME280;59286;59.274;17.974;2022-10-16T02:15:35;100193.25;;;12.33;93.55
71476;BME280;59286;59.274;17.974;2022-10-16T02:18:03;100197.13;;;12.36;93.50
71476;BME280;59286;59.274;17.974;2022-10-16T02:20:34;100174.25;;;12.28;93.53
71476;BME280;59286;59.274;17.974;2022-10-16T02:23:03;100186.16;;;12.34;93.49
71476;BME280;59286;59.274;17.974;2022-10-16T02:25:34;100173.34;;;12.24;93.35
71476;BME280;59286;59.274;17.974;2022-10-16T02:28:31;100198.63;;;12.37;93.34
71476;BME280;59286;59.274;17.974;2022-10-16T02:31:03;100186.75;;;12.31;93.35
71476;BME280;59286;59.274;17.974;2022-10-16T02:33:30;100190.31;;;12.35;93.49
71476;BME280;59286;59.274;17.974;2022-10-16T02:35:58;100169.78;;;12.20;93.01
71476;BME280;59286;59.274;17.974;2022-10-16T02:38:25;100205.28;;;12.43;93.02
71476;BME280;59286;59.274;17.974;2022-10-16T02:40:51;100186.75;;;12.31;93.04
71476;BME280;59286;59.274;17.974;2022-10-16T02:43:16;100170.13;;;12.18;92.92
71476;BME280;59286;59.274;17.974;2022-10-16T02:45:42;100128.28;;;12.05;92.78
71476;BME280;59286;59.274;17.974;2022-10-16T02:48:07;100172.50;;;12.40;92.63
71476;BME280;59286;59.274;17.974;2022-10-16T02:50:33;100138.59;;;12.18;92.31
71476;BME280;59286;59.274;17.974;2022-10-16T02:52:59;100121.75;;;12.11;92.30
71476;BME280;59286;59.274;17.974;2022-10-16T02:55:25;100121.75;;;12.11;92.24
71476;BME280;59286;59.274;17.974;2022-10-16T02:57:51;100159.69;;;12.39;92.29
71476;BME280;59286;59.274;17.974;2022-10-16T03:00:17;100104.03;;;12.08;91.83
71476;BME280;59286;59.274;17.974;2022-10-16T03:02:43;100147.63;;;12.38;92.02
71476;BME280;59286;59.274;17.974;2022-10-16T03:05:10;100133.59;;;12.25;91.87
71476;BME280;59286;59.274;17.974;2022-10-16T03:07:35;100115.72;;;12.19;91.70
71476;BME280;59286;59.274;17.974;2022-10-16T03:10:01;100116.16;;;12.21;91.58
71476;BME280;59286;59.274;17.974;2022-10-16T03:12:28;100127.28;;;12.18;91.70
71476;BME280;59286;59.274;17.974;2022-10-16T03:14:53;100128.25;;;12.13;91.83
71476;BME280;59286;59.274;17.974;2022-10-16T03:17:19;100114.53;;;11.99;91.62
71476;BME280;59286;59.274;17.974;2022-10-16T03:19:44;100102.09;;;11.88;91.56
71476;BME280;59286;59.274;17.974;2022-10-16T03:22:10;100099.94;;;11.90;91.64
71476;BME280;59286;59.274;17.974;2022-10-16T03:24:35;100119.38;;;11.89;92.04
71476;BME280;59286;59.274;17.974;2022-10-16T03:27:01;100091.78;;;11.74;92.53
71476;BME280;59286;59.274;17.974;2022-10-16T03:29:27;100111.06;;;11.78;92.48
71476;BME280;59286;59.274;17.974;2022-10-16T03:31:55;100165.06;;;12.05;93.16
71476;BME280;59286;59.274;17.974;2022-10-16T03:34:20;100129.31;;;11.75;92.81
71476;BME280;59286;59.274;17.974;2022-10-16T03:36:46;100121.91;;;11.77;92.91
71476;BME280;59286;59.274;17.974;2022-10-16T03:39:11;100132.97;;;11.91;92.75
71476;BME280;59286;59.274;17.974;2022-10-16T03:41:36;100163.03;;;12.10;92.36
71476;BME280;59286;59.274;17.974;2022-10-16T03:44:02;100128.19;;;11.84;92.42
71476;BME280;59286;59.274;17.974;2022-10-16T03:46:27;100121.72;;;11.82;92.48
71476;BME280;59286;59.274;17.974;2022-10-16T03:48:53;100128.34;;;11.88;92.50
71476;BME280;59286;59.274;17.974;2022-10-16T03:51:18;100096.88;;;11.71;92.78
71476;BME280;59286;59.274;17.974;2022-10-16T03:53:43;100080.81;;;11.63;92.54
71476;BME280;59286;59.274;17.974;2022-10-16T03:56:09;100122.00;;;11.89;92.44
71476;BME280;59286;59.274;17.974;2022-10-16T03:58:34;100094.56;;;11.69;92.43
71476;BME280;59286;59.274;17.974;2022-10-16T04:01:03;100097.94;;;11.78;92.52
71476;BME280;59286;59.274;17.974;2022-10-16T04:03:28;100097.03;;;11.74;92.55
71476;BME280;59286;59.274;17.974;2022-10-16T04:05:54;100078.94;;;11.64;92.30
71476;BME280;59286;59.274;17.974;2022-10-16T04:08:19;100130.81;;;11.93;92.66
71476;BME280;59286;59.274;17.974;2022-10-16T04:10:45;100093.66;;;11.65;92.88
71476;BME280;59286;59.274;17.974;2022-10-16T04:13:11;100109.09;;;11.66;93.08
71476;BME280;59286;59.274;17.974;2022-10-16T04:15:37;100130.84;;;11.76;93.20
71476;BME280;59286;59.274;17.974;2022-10-16T04:18:03;100102.16;;;11.53;93.55
71476;BME280;59286;59.274;17.974;2022-10-16T04:20:28;100154.94;;;11.78;93.68
71476;BME280;59286;59.274;17.974;2022-10-16T04:22:53;100121.44;;;11.49;93.99
71476;BME280;59286;59.274;17.974;2022-10-16T04:25:19;100107.09;;;11.38;94.18
71476;BME280;59286;59.274;17.974;2022-10-16T04:27:44;100109.72;;;11.38;93.97
71476;BME280;59286;59.274;17.974;2022-10-16T04:30:10;100104.03;;;11.27;94.43
71476;BME280;59286;59.274;17.974;2022-10-16T04:32:35;100124.22;;;11.44;94.12
71476;BME280;59286;59.274;17.974;2022-10-16T04:35:01;100100.19;;;11.33;94.01
71476;BME280;59286;59.274;17.974;2022-10-16T04:37:27;100140.59;;;11.58;94.23
71476;BME280;59286;59.274;17.974;2022-10-16T04:39:55;100103.25;;;11.27;94.43
71476;BME280;59286;59.274;17.974;2022-10-16T04:42:20;100147.53;;;11.54;94.18
71476;BME280;59286;59.274;17.974;2022-10-16T04:44:46;100109.56;;;11.34;94.67
71476;BME280;59286;59.274;17.974;2022-10-16T04:47:12;100113.13;;;11.38;94.62
71476;BME280;59286;59.274;17.974;2022-10-16T04:49:37;100130.09;;;11.49;94.58
71476;BME280;59286;59.274;17.974;2022-10-16T04:52:03;100129.94;;;11.46;94.83
71476;BME280;59286;59.274;17.974;2022-10-16T04:54:28;100093.84;;;11.26;94.22
71476;BME280;59286;59.274;17.974;2022-10-16T04:56:54;100138.25;;;11.56;94.31
71476;BME280;59286;59.274;17.974;2022-10-16T04:59:19;100102.16;;;11.36;94.49
71476;BME280;59286;59.274;17.974;2022-10-16T05:01:45;100106.97;;;11.26;94.68
71476;BME280;59286;59.274;17.974;2022-10-16T05:04:11;100099.22;;;11.21;95.06
71476;BME280;59286;59.274;17.974;2022-10-16T05:06:37;100132.41;;;11.42;95.03
71476;BME280;59286;59.274;17.974;2022-10-16T05:09:04;100112.66;;;11.36;95.00
71476;BME280;59286;59.274;17.974;2022-10-16T05:11:30;100103.88;;;11.24;95.10
71476;BME280;59286;59.274;17.974;2022-10-16T05:13:55;100146.91;;;11.57;94.85
71476;BME280;59286;59.274;17.974;2022-10-16T05:16:21;100119.47;;;11.37;95.31
71476;BME280;59286;59.274;17.974;2022-10-16T05:18:48;100109.09;;;11.32;95.18
71476;BME280;59286;59.274;17.974;2022-10-16T05:21:13;100116.66;;;11.42;95.00
71476;BME280;59286;59.274;17.974;2022-10-16T05:23:39;100136.25;;;11.53;95.30
71476;BME280;59286;59.274;17.974;2022-10-16T05:26:04;100150.13;;;11.62;95.48
71476;BME280;59286;59.274;17.974;2022-10-16T05:28:30;100146.00;;;11.61;95.41
71476;BME280;59286;59.274;17.974;2022-10-16T05:30:56;100109.41;;;11.48;95.29
71476;BME280;59286;59.274;17.974;2022-10-16T05:33:24;100117.13;;;11.53;95.09
71476;BME280;59286;59.274;17.974;2022-10-16T05:35:50;100106.78;;;11.39;95.33
71476;BME280;59286;59.274;17.974;2022-10-16T05:38:17;100104.00;;;11.44;95.35
71476;BME280;59286;59.274;17.974;2022-10-16T05:40:42;100117.88;;;11.53;95.35
71476;BME280;59286;59.274;17.974;2022-10-16T05:43:08;100123.75;;;11.59;95.33
71476;BME280;59286;59.274;17.974;2022-10-16T05:45:33;100109.56;;;11.51;95.43
71476;BME280;59286;59.274;17.974;2022-10-16T05:47:59;100095.69;;;11.42;95.42
71476;BME280;59286;59.274;17.974;2022-10-16T05:50:27;100102.31;;;11.48;96.01
71476;BME280;59286;59.274;17.974;2022-10-16T05:52:53;100150.59;;;11.82;95.99
71476;BME280;59286;59.274;17.974;2022-10-16T05:55:18;100124.53;;;11.68;96.12
71476;BME280;59286;59.274;17.974;2022-10-16T05:57:44;100119.91;;;11.65;95.96
71476;BME280;59286;59.274;17.974;2022-10-16T06:00:10;100103.22;;;11.52;96.20
71476;BME280;59286;59.274;17.974;2022-10-16T06:02:35;100123.28;;;11.65;96.29
71476;BME280;59286;59.274;17.974;2022-10-16T06:05:01;100156.78;;;11.86;96.28
71476;BME280;59286;59.274;17.974;2022-10-16T06:07:26;100136.72;;;11.73;96.25
71476;BME280;59286;59.274;17.974;2022-10-16T06:09:52;100157.38;;;11.91;95.82
71476;BME280;59286;59.274;17.974;2022-10-16T06:12:18;100140.09;;;11.82;95.91
71476;BME280;59286;59.274;17.974;2022-10-16T06:14:45;100133.28;;;11.81;96.29
71476;BME280;59286;59.274;17.974;2022-10-16T06:17:13;100137.00;;;11.80;96.14
71476;BME280;59286;59.274;17.974;2022-10-16T06:19:38;100152.00;;;11.88;96.39
71476;BME280;59286;59.274;17.974;2022-10-16T06:22:04;100132.22;;;11.82;96.11
71476;BME280;59286;59.274;17.974;2022-10-16T06:24:29;100172.28;;;12.16;95.99
71476;BME280;59286;59.274;17.974;2022-10-16T06:26:54;100161.63;;;12.13;96.07
71476;BME280;59286;59.274;17.974;2022-10-16T06:29:20;100131.44;;;11.90;96.03
71476;BME280;59286;59.274;17.974;2022-10-16T06:31:45;100134.03;;;11.98;96.06
71476;BME280;59286;59.274;17.974;2022-10-16T06:34:11;100146.06;;;12.08;95.77
71476;BME280;59286;59.274;17.974;2022-10-16T06:36:38;100148.22;;;12.06;95.92
71476;BME280;59286;59.274;17.974;2022-10-16T06:39:03;100167.31;;;12.23;95.78
71476;BME280;59286;59.274;17.974;2022-10-16T06:41:30;100147.56;;;12.09;95.45
71476;BME280;59286;59.274;17.974;2022-10-16T06:43:56;100171.75;;;12.31;95.31
71476;BME280;59286;59.274;17.974;2022-10-16T06:46:23;100172.88;;;12.30;95.11
71476;BME280;59286;59.274;17.974;2022-10-16T06:48:49;100176.09;;;12.36;95.41
71476;BME280;59286;59.274;17.974;2022-10-16T06:51:17;100140.75;;;12.16;95.21
71476;BME280;59286;59.274;17.974;2022-10-16T06:53:45;100194.41;;;12.53;95.25
71476;BME280;59286;59.274;17.974;2022-10-16T06:56:13;100168.19;;;12.36;95.04
71476;BME280;59286;59.274;17.974;2022-10-16T06:58:39;100163.28;;;12.34;95.03
71476;BME280;59286;59.274;17.974;2022-10-16T07:01:05;100140.28;;;12.23;94.77
71476;BME280;59286;59.274;17.974;2022-10-16T07:03:31;100172.03;;;12.47;94.42
71476;BME280;59286;59.274;17.974;2022-10-16T07:06:02;100180.63;;;12.56;94.28
71476;BME280;59286;59.274;17.974;2022-10-16T07:08:31;100169.38;;;12.47;93.71
71476;BME280;59286;59.274;17.974;2022-10-16T07:11:01;100161.50;;;12.47;94.09
71476;BME280;59286;59.274;17.974;2022-10-16T07:13:27;100178.78;;;12.56;93.71
71476;BME280;59286;59.274;17.974;2022-10-16T07:15:53;100198.19;;;12.73;93.37
71476;BME280;59286;59.274;17.974;2022-10-16T07:18:18;100175.63;;;12.63;93.29
71476;BME280;59286;59.274;17.974;2022-10-16T07:20:44;100186.88;;;12.72;93.00
71476;BME280;59286;59.274;17.974;2022-10-16T07:23:09;100177.00;;;12.69;92.68
71476;BME280;59286;59.274;17.974;2022-10-16T07:25:35;100168.56;;;12.55;92.79
71476;BME280;59286;59.274;17.974;2022-10-16T07:28:00;100162.03;;;12.61;91.96
71476;BME280;59286;59.274;17.974;2022-10-16T07:30:26;100192.84;;;12.81;91.56
71476;BME280;59286;59.274;17.974;2022-10-16T07:32:51;100179.00;;;12.72;91.60
71476;BME280;59286;59.274;17.974;2022-10-16T07:35:17;100151.25;;;12.54;90.51
71476;BME280;59286;59.274;17.974;2022-10-16T07:37:46;100149.09;;;12.56;91.29
71476;BME280;59286;59.274;17.974;2022-10-16T07:40:11;100161.63;;;12.50;90.84
71476;BME280;59286;59.274;17.974;2022-10-16T07:42:37;100180.28;;;12.66;90.71
71476;BME280;59286;59.274;17.974;2022-10-16T07:45:03;100167.34;;;12.52;88.75
71476;BME280;59286;59.274;17.974;2022-10-16T07:47:29;100207.13;;;12.80;88.80
71476;BME280;59286;59.274;17.974;2022-10-16T07:49:54;100215.19;;;12.75;88.88
71476;BME280;59286;59.274;17.974;2022-10-16T07:52:19;100205.47;;;12.67;89.26
71476;BME280;59286;59.274;17.974;2022-10-16T07:54:45;100177.53;;;12.54;88.95
71476;BME280;59286;59.274;17.974;2022-10-16T07:57:10;100186.81;;;12.60;88.63
71476;BME280;59286;59.274;17.974;2022-10-16T07:59:36;100157.28;;;12.54;88.74
71476;BME280;59286;59.274;17.974;2022-10-16T08:02:01;100164.53;;;12.57;88.79
71476;BME280;59286;59.274;17.974;2022-10-16T08:04:26;100192.97;;;12.64;88.45
71476;BME280;59286;59.274;17.974;2022-10-16T08:06:52;100186.16;;;12.63;88.28
71476;BME280;59286;59.274;17.974;2022-10-16T08:09:19;100166.38;;;12.57;88.46
71476;BME280;59286;59.274;17.974;2022-10-16T08:11:45;100198.75;;;12.78;88.36
71476;BME280;59286;59.274;17.974;2022-10-16T08:14:10;100198.91;;;12.82;87.53
71476;BME280;59286;59.274;17.974;2022-10-16T08:16:38;100206.47;;;12.83;88.41
71476;BME280;59286;59.274;17.974;2022-10-16T08:19:04;100167.28;;;12.61;87.75
71476;BME280;59286;59.274;17.974;2022-10-16T08:21:29;100207.13;;;12.80;87.76
71476;BME280;59286;59.274;17.974;2022-10-16T08:23:55;100206.19;;;12.76;88.79
71476;BME280;59286;59.274;17.974;2022-10-16T08:26:20;100222.88;;;12.80;88.04
71476;BME280;59286;59.274;17.974;2022-10-16T08:28:49;100212.19;;;12.85;87.87
71476;BME280;59286;59.274;17.974;2022-10-16T08:31:15;100191.97;;;12.77;87.79
71476;BME280;59286;59.274;17.974;2022-10-16T08:33:43;100201.72;;;12.77;87.65
71476;BME280;59286;59.274;17.974;2022-10-16T08:36:09;100213.53;;;12.91;87.00
71476;BME280;59286;59.274;17.974;2022-10-16T08:38:35;100221.56;;;13.03;87.11
71476;BME280;59286;59.274;17.974;2022-10-16T08:44:14;100230.91;;;13.13;86.71
71476;BME280;59286;59.274;17.974;2022-10-16T08:49:12;100220.25;;;13.09;86.71
71476;BME280;59286;59.274;17.974;2022-10-16T08:51:39;100200.19;;;12.96;86.37
71476;BME280;59286;59.274;17.974;2022-10-16T08:54:49;100212.91;;;12.94;87.14
71476;BME280;59286;59.274;17.974;2022-10-16T08:56:56;100249.97;;;13.18;86.70
71476;BME280;59286;59.274;17.974;2022-10-16T08:59:26;100211.63;;;13.00;86.49
71476;BME280;59286;59.274;17.974;2022-10-16T09:01:51;100222.03;;;12.97;85.70
71476;BME280;59286;59.274;17.974;2022-10-16T09:07:36;100234.34;;;13.13;86.25
71476;BME280;59286;59.274;17.974;2022-10-16T09:12:21;100253.91;;;13.24;85.89
71476;BME280;59286;59.274;17.974;2022-10-16T09:15:00;100243.91;;;13.18;84.85
71476;BME280;59286;59.274;17.974;2022-10-16T09:22:36;100200.31;;;13.00;84.74
71476;BME280;59286;59.274;17.974;2022-10-16T09:25:10;100205.63;;;13.20;84.67
71476;BME280;59286;59.274;17.974;2022-10-16T09:27:37;100233.72;;;13.37;85.68
71476;BME280;59286;59.274;17.974;2022-10-16T09:30:11;100216.94;;;13.21;84.98
71476;BME280;59286;59.274;17.974;2022-10-16T09:32:38;100200.66;;;13.07;83.94
71476;BME280;59286;59.274;17.974;2022-10-16T09:35:14;100190.88;;;13.07;83.87
71476;BME280;59286;59.274;17.974;2022-10-16T09:37:42;100257.03;;;13.47;84.36
71476;BME280;59286;59.274;17.974;2022-10-16T09:40:23;100210.84;;;13.29;84.08
71476;BME280;59286;59.274;17.974;2022-10-16T09:42:49;100216.00;;;13.46;83.19
71476;BME280;59286;59.274;17.974;2022-10-16T09:45:22;100217.66;;;13.50;82.58
71476;BME280;59286;59.274;17.974;2022-10-16T09:47:48;100213.25;;;13.42;82.59
71476;BME280;59286;59.274;17.974;2022-10-16T09:50:26;100200.00;;;13.51;82.04
71476;BME280;59286;59.274;17.974;2022-10-16T09:53:12;100231.91;;;13.70;82.03
71476;BME280;59286;59.274;17.974;2022-10-16T09:55:49;100191.72;;;13.40;82.77
71476;BME280;59286;59.274;17.974;2022-10-16T09:58:15;100218.09;;;13.52;82.24
71476;BME280;59286;59.274;17.974;2022-10-16T10:00:41;100208.16;;;13.37;82.48
71476;BME280;59286;59.274;17.974;2022-10-16T10:03:13;100227.34;;;13.58;81.71
71476;BME280;59286;59.274;17.974;2022-10-16T10:05:48;100226.31;;;13.51;81.92
71476;BME280;59286;59.274;17.974;2022-10-16T10:08:17;100201.69;;;13.35;82.12
71476;BME280;59286;59.274;17.974;2022-10-16T10:10:43;100232.88;;;13.66;82.20
71476;BME280;59286;59.274;17.974;2022-10-16T10:13:20;100244.78;;;13.84;81.31
71476;BME280;59286;59.274;17.974;2022-10-16T10:15:46;100224.13;;;13.74;80.78
71476;BME280;59286;59.274;17.974;2022-10-16T10:18:20;100240.81;;;13.78;80.64
71476;BME280;59286;59.274;17.974;2022-10-16T10:20:58;100254.81;;;13.90;81.08
71476;BME280;59286;59.274;17.974;2022-10-16T10:23:25;100234.25;;;13.84;79.97
71476;BME280;59286;59.274;17.974;2022-10-16T10:26:08;100240.53;;;13.91;80.19
71476;BME280;59286;59.274;17.974;2022-10-16T10:31:28;100227.38;;;13.71;78.79
71476;BME280;59286;59.274;17.974;2022-10-16T10:34:09;100239.03;;;13.70;79.29
71476;BME280;59286;59.274;17.974;2022-10-16T10:36:39;100244.53;;;13.77;78.97
71476;BME280;59286;59.274;17.974;2022-10-16T10:41:49;100242.09;;;13.92;78.48
71476;BME280;59286;59.274;17.974;2022-10-16T10:52:33;100232.72;;;14.15;74.86
71476;BME280;59286;59.274;17.974;2022-10-16T11:03:41;100233.03;;;14.14;74.73
71476;BME280;59286;59.274;17.974;2022-10-16T11:06:20;100231.50;;;14.13;75.18
71476;BME280;59286;59.274;17.974;2022-10-16T11:09:02;100217.63;;;14.04;76.28
71476;BME280;59286;59.274;17.974;2022-10-16T11:11:50;100209.06;;;14.07;75.17
71476;BME280;59286;59.274;17.974;2022-10-16T11:14:30;100216.69;;;14.20;76.23
71476;BME280;59286;59.274;17.974;2022-10-16T11:17:11;100213.56;;;14.39;76.77
71476;BME280;59286;59.274;17.974;2022-10-16T11:20:10;100200.47;;;14.42;74.41
71476;BME280;59286;59.274;17.974;2022-10-16T11:22:39;100198.16;;;14.53;74.62
71476;BME280;59286;59.274;17.974;2022-10-16T11:25:27;100206.97;;;14.69;73.44
71476;BME280;59286;59.274;17.974;2022-10-16T11:28:11;100189.72;;;14.60;73.58
71476;BME280;59286;59.274;17.974;2022-10-16T11:31:00;100215.66;;;14.82;73.72
71476;BME280;59286;59.274;17.974;2022-10-16T11:33:37;100214.09;;;14.81;73.40
71476;BME280;59286;59.274;17.974;2022-10-16T11:41:45;100197.19;;;14.45;72.22
71476;BME280;59286;59.274;17.974;2022-10-16T11:49:41;100197.88;;;14.10;73.78
71476;BME280;59286;59.274;17.974;2022-10-16T11:52:23;100192.59;;;14.10;74.60
71476;BME280;59286;59.274;17.974;2022-10-16T11:54:57;100186.69;;;14.13;74.23
71476;BME280;59286;59.274;17.974;2022-10-16T11:57:29;100164.25;;;14.07;74.16
71476;BME280;59286;59.274;17.974;2022-10-16T12:00:30;100180.59;;;14.33;75.00
71476;BME280;59286;59.274;17.974;2022-10-16T12:02:58;100186.75;;;14.37;75.05
71476;BME280;59286;59.274;17.974;2022-10-16T12:08:01;100176.06;;;14.45;75.29
71476;BME280;59286;59.274;17.974;2022-10-16T12:10:30;100152.47;;;14.37;75.04
71476;BME280;59286;59.274;17.974;2022-10-16T12:13:04;100161.38;;;14.44;74.47
71476;BME280;59286;59.274;17.974;2022-10-16T12:15:31;100148.28;;;14.36;75.36
71476;BME280;59286;59.274;17.974;2022-10-16T12:17:57;100139.94;;;14.34;75.81
71476;BME280;59286;59.274;17.974;2022-10-16T12:20:27;100149.94;;;14.52;76.63
71476;BME280;59286;59.274;17.974;2022-10-16T12:23:00;100129.81;;;14.48;75.83
71476;BME280;59286;59.274;17.974;2022-10-16T12:25:32;100092.06;;;14.32;74.22
71476;BME280;59286;59.274;17.974;2022-10-16T12:30:32;100080.91;;;14.14;75.07
71476;BME280;59286;59.274;17.974;2022-10-16T12:33:01;100107.72;;;14.28;75.54
71476;BME280;59286;59.274;17.974;2022-10-16T12:35:35;100086.09;;;14.11;74.36
71476;BME280;59286;59.274;17.974;2022-10-16T12:38:16;100140.47;;;14.51;74.54
71476;BME280;59286;59.274;17.974;2022-10-16T12:40:43;100130.16;;;14.46;74.76
71476;BME280;59286;59.274;17.974;2022-10-16T12:43:38;100113.44;;;14.30;74.68
71476;BME280;59286;59.274;17.974;2022-10-16T12:48:44;100065.44;;;14.13;73.77
71476;BME280;59286;59.274;17.974;2022-10-16T12:51:19;100097.97;;;14.41;73.93
71476;BME280;59286;59.274;17.974;2022-10-16T12:54:01;100090.72;;;14.38;74.29
71476;BME280;59286;59.274;17.974;2022-10-16T13:02:53;100091.38;;;14.35;74.03
71476;BME280;59286;59.274;17.974;2022-10-16T13:08:52;100107.63;;;14.37;74.67
71476;BME280;59286;59.274;17.974;2022-10-16T13:11:43;100060.38;;;13.96;74.13
71476;BME280;59286;59.274;17.974;2022-10-16T13:25:32;100074.25;;;14.41;73.71
71476;BME280;59286;59.274;17.974;2022-10-16T13:28:06;100052.94;;;14.34;73.88
71476;BME280;59286;59.274;17.974;2022-10-16T13:30:41;100064.47;;;14.29;74.19
71476;BME280;59286;59.274;17.974;2022-10-16T13:35:36;100038.44;;;14.04;74.59
71476;BME280;59286;59.274;17.974;2022-10-16T13:38:12;100072.25;;;14.26;73.92
71476;BME280;59286;59.274;17.974;2022-10-16T13:40:59;100002.41;;;13.84;74.18
71476;BME280;59286;59.274;17.974;2022-10-16T13:43:32;100068.28;;;14.20;74.02
71476;BME280;59286;59.274;17.974;2022-10-16T13:46:19;100018.78;;;13.77;74.06
71476;BME280;59286;59.274;17.974;2022-10-16T13:48:59;100029.53;;;13.84;74.73
71476;BME280;59286;59.274;17.974;2022-10-16T13:51:28;100053.91;;;13.93;74.43
71476;BME280;59286;59.274;17.974;2022-10-16T13:53:57;100000.22;;;13.61;74.68
71476;BME280;59286;59.274;17.974;2022-10-16T13:56:26;100064.34;;;14.02;74.50
71476;BME280;59286;59.274;17.974;2022-10-16T13:59:00;99984.41;;;13.49;73.83
71476;BME280;59286;59.274;17.974;2022-10-16T14:04:10;100050.38;;;13.77;74.89
71476;BME280;59286;59.274;17.974;2022-10-16T14:06:40;100064.88;;;13.83;74.99
71476;BME280;59286;59.274;17.974;2022-10-16T14:09:20;100009.84;;;13.45;75.54
71476;BME280;59286;59.274;17.974;2022-10-16T14:11:49;100000.94;;;13.38;75.43
71476;BME280;59286;59.274;17.974;2022-10-16T14:14:17;100062.09;;;13.68;75.60
71476;BME280;59286;59.274;17.974;2022-10-16T14:16:43;99994.69;;;13.30;75.98
71476;BME280;59286;59.274;17.974;2022-10-16T14:19:20;100004.56;;;13.33;75.90
71476;BME280;59286;59.274;17.974;2022-10-16T14:21:48;99988.31;;;13.19;76.39
71476;BME280;59286;59.274;17.974;2022-10-16T14:26:58;99993.09;;;13.05;76.65
71476;BME280;59286;59.274;17.974;2022-10-16T14:29:30;99989.09;;;12.99;76.89